sensor_id;sensor_type;location;lat;lon;timestamp;P1;P2;P0
36453;PMS5003;22478;51.740;-1.314;2024-01-30T00:00:45;4;4;
36453;PMS5003;22478;51.740;-1.314;2024-01-30T00:03:13;4;2;
36453;PMS5003;22478;51.740;-1.314;2024-01-30T00:05:40;3;3;
36453;PMS5003;22478;51.740;-1.314;2024-01-30T00:08:07;3;3;
36453;PMS5003;22478;51.740;-1.314;2024-01-30T00:10:34;1;1;
36453;PMS5003;22478;51.740;-1.314;2024-01-30T00:13:01;1;1;
36453;PMS5003;22478;51.740;-1.314;2024-01-30T00:15:28;1;1;
36453;PMS5003;22478;51.740;-1.314;2024-01-30T00:17:55;0;0;
36453;PMS5003;22478;51.740;-1.314;2024-01-30T00:20:22;1;1;
36453;PMS5003;22478;51.740;-1.314;2024-01-30T00:22:49;1;1;
36453;PMS5003;22478;51.740;-1.314;2024-01-30T00:25:16;0;0;
36453;PMS5003;22478;51.740;-1.314;2024-01-30T00:27:43;1;1;
36453;PMS5003;22478;51.740;-1.314;2024-01-30T00:30:11;3;1;
36453;PMS5003;22478;51.740;-1.314;2024-01-30T00:32:39;2;2;
36453;PMS5003;22478;51.740;-1.314;2024-01-30T00:35:06;1;1;
36453;PMS5003;22478;51.740;-1.314;2024-01-30T00:37:34;0;0;
36453;PMS5003;22478;51.740;-1.314;2024-01-30T00:40:01;1;0;
36453;PMS5003;22478;51.740;-1.314;2024-01-30T00:42:29;4;3;
36453;PMS5003;22478;51.740;-1.314;2024-01-30T00:44:57;1;1;
36453;PMS5003;22478;51.740;-1.314;2024-01-30T00:47:24;2;1;
36453;PMS5003;22478;51.740;-1.314;2024-01-30T00:49:51;1;1;
36453;PMS5003;22478;51.740;-1.314;2024-01-30T00:52:18;1;0;
36453;PMS5003;22478;51.740;-1.314;2024-01-30T00:54:45;2;1;
36453;PMS5003;22478;51.740;-1.314;2024-01-30T00:57:12;1;1;
36453;PMS5003;22478;51.740;-1.314;2024-01-30T00:59:39;0;0;
36453;PMS5003;22478;51.740;-1.314;2024-01-30T01:02:06;1;0;
36453;PMS5003;22478;51.740;-1.314;2024-01-30T01:04:33;1;1;
36453;PMS5003;22478;51.740;-1.314;2024-01-30T01:07:00;1;1;
36453;PMS5003;22478;51.740;-1.314;2024-01-30T01:09:27;0;0;
36453;PMS5003;22478;51.740;-1.314;2024-01-30T01:11:54;0;0;
36453;PMS5003;22478;51.740;-1.314;2024-01-30T01:14:21;1;1;
36453;PMS5003;22478;51.740;-1.314;2024-01-30T01:16:49;1;1;
36453;PMS5003;22478;51.740;-1.314;2024-01-30T01:19:16;1;1;
36453;PMS5003;22478;51.740;-1.314;2024-01-30T01:21:43;2;1;
36453;PMS5003;22478;51.740;-1.314;2024-01-30T01:24:10;1;1;
36453;PMS5003;22478;51.740;-1.314;2024-01-30T01:26:37;1;1;
36453;PMS5003;22478;51.740;-1.314;2024-01-30T01:29:04;0;0;
36453;PMS5003;22478;51.740;-1.314;2024-01-30T01:31:32;0;0;
36453;PMS5003;22478;51.740;-1.314;2024-01-30T01:33:59;0;0;
36453;PMS5003;22478;51.740;-1.314;2024-01-30T01:36:26;1;1;
36453;PMS5003;22478;51.740;-1.314;2024-01-30T01:38:53;1;1;
36453;PMS5003;22478;51.740;-1.314;2024-01-30T01:41:20;0;0;
36453;PMS5003;22478;51.740;-1.314;2024-01-30T01:43:47;1;1;
36453;PMS5003;22478;51.740;-1.314;2024-01-30T01:46:14;3;1;
36453;PMS5003;22478;51.740;-1.314;2024-01-30T01:48:42;0;0;
36453;PMS5003;22478;51.740;-1.314;2024-01-30T01:51:09;0;0;
36453;PMS5003;22478;51.740;-1.314;2024-01-30T01:53:37;2;0;
36453;PMS5003;22478;51.740;-1.314;2024-01-30T01:56:05;0;0;
36453;PMS5003;22478;51.740;-1.314;2024-01-30T01:58:33;0;0;
36453;PMS5003;22478;51.740;-1.314;2024-01-30T02:01:01;0;0;
36453;PMS5003;22478;51.740;-1.314;2024-01-30T02:03:30;2;0;
36453;PMS5003;22478;51.740;-1.314;2024-01-30T02:05:58;0;0;
36453;PMS5003;22478;51.740;-1.314;2024-01-30T02:08:26;0;0;
36453;PMS5003;22478;51.740;-1.314;2024-01-30T02:10:53;0;0;
36453;PMS5003;22478;51.740;-1.314;2024-01-30T02:13:20;1;1;
36453;PMS5003;22478;51.740;-1.314;2024-01-30T02:15:49;0;0;
36453;PMS5003;22478;51.740;-1.314;2024-01-30T02:18:16;0;0;
36453;PMS5003;22478;51.740;-1.314;2024-01-30T02:20:43;1;1;
36453;PMS5003;22478;51.740;-1.314;2024-01-30T02:23:11;0;0;
36453;PMS5003;22478;51.740;-1.314;2024-01-30T02:25:39;0;0;
36453;PMS5003;22478;51.740;-1.314;2024-01-30T02:28:07;1;1;
36453;PMS5003;22478;51.740;-1.314;2024-01-30T02:30:34;0;0;
36453;PMS5003;22478;51.740;-1.314;2024-01-30T02:33:01;0;0;
36453;PMS5003;22478;51.740;-1.314;2024-01-30T02:35:28;1;1;
36453;PMS5003;22478;51.740;-1.314;2024-01-30T02:37:55;1;1;
36453;PMS5003;22478;51.740;-1.314;2024-01-30T02:40:22;1;1;
36453;PMS5003;22478;51.740;-1.314;2024-01-30T02:42:49;1;1;
36453;PMS5003;22478;51.740;-1.314;2024-01-30T02:45:16;1;1;
36453;PMS5003;22478;51.740;-1.314;2024-01-30T02:47:45;2;2;
36453;PMS5003;22478;51.740;-1.314;2024-01-30T02:50:13;1;1;
36453;PMS5003;22478;51.740;-1.314;2024-01-30T02:52:40;1;1;
36453;PMS5003;22478;51.740;-1.314;2024-01-30T02:55:07;1;1;
36453;PMS5003;22478;51.740;-1.314;2024-01-30T02:57:35;0;0;
36453;PMS5003;22478;51.740;-1.314;2024-01-30T03:00:02;1;1;
36453;PMS5003;22478;51.740;-1.314;2024-01-30T03:02:30;4;1;
36453;PMS5003;22478;51.740;-1.314;2024-01-30T03:04:57;1;1;
36453;PMS5003;22478;51.740;-1.314;2024-01-30T03:07:24;1;1;
36453;PMS5003;22478;51.740;-1.314;2024-01-30T03:09:51;2;0;
36453;PMS5003;22478;51.740;-1.314;2024-01-30T03:12:18;2;0;
36453;PMS5003;22478;51.740;-1.314;2024-01-30T03:14:45;2;1;
36453;PMS5003;22478;51.740;-1.314;2024-01-30T03:17:12;0;0;
36453;PMS5003;22478;51.740;-1.314;2024-01-30T03:19:39;1;1;
36453;PMS5003;22478;51.740;-1.314;2024-01-30T03:22:06;1;1;
36453;PMS5003;22478;51.740;-1.314;2024-01-30T03:24:34;1;0;
36453;PMS5003;22478;51.740;-1.314;2024-01-30T03:27:01;1;1;
36453;PMS5003;22478;51.740;-1.314;2024-01-30T03:29:29;1;1;
36453;PMS5003;22478;51.740;-1.314;2024-01-30T03:31:56;2;2;
36453;PMS5003;22478;51.740;-1.314;2024-01-30T03:34:23;1;1;
36453;PMS5003;22478;51.740;-1.314;2024-01-30T03:36:50;2;2;
36453;PMS5003;22478;51.740;-1.314;2024-01-30T03:39:17;2;2;
36453;PMS5003;22478;51.740;-1.314;2024-01-30T03:41:44;1;1;
36453;PMS5003;22478;51.740;-1.314;2024-01-30T03:44:11;3;2;
36453;PMS5003;22478;51.740;-1.314;2024-01-30T03:46:38;1;1;
36453;PMS5003;22478;51.740;-1.314;2024-01-30T03:49:05;4;2;
36453;PMS5003;22478;51.740;-1.314;2024-01-30T03:51:32;4;4;
36453;PMS5003;22478;51.740;-1.314;2024-01-30T03:53:59;4;3;
36453;PMS5003;22478;51.740;-1.314;2024-01-30T03:56:27;2;2;
36453;PMS5003;22478;51.740;-1.314;2024-01-30T03:58:54;4;2;
36453;PMS5003;22478;51.740;-1.314;2024-01-30T04:01:21;2;2;
36453;PMS5003;22478;51.740;-1.314;2024-01-30T04:03:48;4;4;
36453;PMS5003;22478;51.740;-1.314;2024-01-30T04:06:16;6;6;
36453;PMS5003;22478;51.740;-1.314;2024-01-30T04:08:43;3;3;
36453;PMS5003;22478;51.740;-1.314;2024-01-30T04:11:10;3;3;
36453;PMS5003;22478;51.740;-1.314;2024-01-30T04:13:37;4;4;
36453;PMS5003;22478;51.740;-1.314;2024-01-30T04:16:05;6;6;
36453;PMS5003;22478;51.740;-1.314;2024-01-30T04:18:33;4;4;
36453;PMS5003;22478;51.740;-1.314;2024-01-30T04:21:00;9;6;
36453;PMS5003;22478;51.740;-1.314;2024-01-30T04:23:27;9;9;
36453;PMS5003;22478;51.740;-1.314;2024-01-30T04:25:54;12;8;
36453;PMS5003;22478;51.740;-1.314;2024-01-30T04:28:21;11;9;
36453;PMS5003;22478;51.740;-1.314;2024-01-30T04:30:48;7;7;
36453;PMS5003;22478;51.740;-1.314;2024-01-30T04:33:15;10;8;
36453;PMS5003;22478;51.740;-1.314;2024-01-30T04:35:42;11;9;
36453;PMS5003;22478;51.740;-1.314;2024-01-30T04:38:09;9;8;
36453;PMS5003;22478;51.740;-1.314;2024-01-30T04:40:36;10;9;
36453;PMS5003;22478;51.740;-1.314;2024-01-30T04:43:04;16;9;
36453;PMS5003;22478;51.740;-1.314;2024-01-30T04:45:31;11;10;
36453;PMS5003;22478;51.740;-1.314;2024-01-30T04:47:58;7;7;
36453;PMS5003;22478;51.740;-1.314;2024-01-30T04:50:26;5;5;
36453;PMS5003;22478;51.740;-1.314;2024-01-30T04:52:53;6;5;
36453;PMS5003;22478;51.740;-1.314;2024-01-30T04:55:21;9;9;
36453;PMS5003;22478;51.740;-1.314;2024-01-30T04:57:48;5;5;
36453;PMS5003;22478;51.740;-1.314;2024-01-30T05:00:15;6;4;
36453;PMS5003;22478;51.740;-1.314;2024-01-30T05:02:43;5;3;
36453;PMS5003;22478;51.740;-1.314;2024-01-30T05:05:10;5;5;
36453;PMS5003;22478;51.740;-1.314;2024-01-30T05:07:38;5;5;
36453;PMS5003;22478;51.740;-1.314;2024-01-30T05:10:08;4;4;
36453;PMS5003;22478;51.740;-1.314;2024-01-30T05:12:36;5;4;
36453;PMS5003;22478;51.740;-1.314;2024-01-30T05:15:03;6;5;
36453;PMS5003;22478;51.740;-1.314;2024-01-30T05:17:31;3;3;
36453;PMS5003;22478;51.740;-1.314;2024-01-30T05:19:58;4;3;
36453;PMS5003;22478;51.740;-1.314;2024-01-30T05:22:26;1;1;
36453;PMS5003;22478;51.740;-1.314;2024-01-30T05:24:53;0;0;
36453;PMS5003;22478;51.740;-1.314;2024-01-30T05:27:20;0;0;
36453;PMS5003;22478;51.740;-1.314;2024-01-30T05:29:47;0;0;
36453;PMS5003;22478;51.740;-1.314;2024-01-30T05:32:14;1;1;
36453;PMS5003;22478;51.740;-1.314;2024-01-30T05:34:41;0;0;
36453;PMS5003;22478;51.740;-1.314;2024-01-30T05:37:08;0;0;
36453;PMS5003;22478;51.740;-1.314;2024-01-30T05:39:35;0;0;
36453;PMS5003;22478;51.740;-1.314;2024-01-30T05:42:03;0;0;
36453;PMS5003;22478;51.740;-1.314;2024-01-30T05:44:31;0;0;
36453;PMS5003;22478;51.740;-1.314;2024-01-30T05:46:58;0;0;
36453;PMS5003;22478;51.740;-1.314;2024-01-30T05:49:25;0;0;
36453;PMS5003;22478;51.740;-1.314;2024-01-30T05:51:52;0;0;
36453;PMS5003;22478;51.740;-1.314;2024-01-30T05:54:19;0;0;
36453;PMS5003;22478;51.740;-1.314;2024-01-30T05:56:46;0;0;
36453;PMS5003;22478;51.740;-1.314;2024-01-30T05:59:13;0;0;
36453;PMS5003;22478;51.740;-1.314;2024-01-30T06:01:45;0;0;
36453;PMS5003;22478;51.740;-1.314;2024-01-30T06:04:13;0;0;
36453;PMS5003;22478;51.740;-1.314;2024-01-30T06:06:40;0;0;
36453;PMS5003;22478;51.740;-1.314;2024-01-30T06:09:07;0;0;
36453;PMS5003;22478;51.740;-1.314;2024-01-30T06:11:34;0;0;
36453;PMS5003;22478;51.740;-1.314;2024-01-30T06:14:01;0;0;
36453;PMS5003;22478;51.740;-1.314;2024-01-30T06:16:28;0;0;
36453;PMS5003;22478;51.740;-1.314;2024-01-30T06:18:55;0;0;
36453;PMS5003;22478;51.740;-1.314;2024-01-30T06:21:24;2;0;
36453;PMS5003;22478;51.740;-1.314;2024-01-30T06:23:51;0;0;
36453;PMS5003;22478;51.740;-1.314;2024-01-30T06:26:18;1;0;
36453;PMS5003;22478;51.740;-1.314;2024-01-30T06:28:46;0;0;
36453;PMS5003;22478;51.740;-1.314;2024-01-30T06:31:13;0;0;
36453;PMS5003;22478;51.740;-1.314;2024-01-30T06:33:40;0;0;
36453;PMS5003;22478;51.740;-1.314;2024-01-30T06:36:07;0;0;
36453;PMS5003;22478;51.740;-1.314;2024-01-30T06:38:35;0;0;
36453;PMS5003;22478;51.740;-1.314;2024-01-30T06:41:02;0;0;
36453;PMS5003;22478;51.740;-1.314;2024-01-30T06:43:29;0;0;
36453;PMS5003;22478;51.740;-1.314;2024-01-30T06:45:56;0;0;
36453;PMS5003;22478;51.740;-1.314;2024-01-30T06:48:24;0;0;
36453;PMS5003;22478;51.740;-1.314;2024-01-30T06:50:52;0;0;
36453;PMS5003;22478;51.740;-1.314;2024-01-30T06:53:20;2;0;
36453;PMS5003;22478;51.740;-1.314;2024-01-30T06:55:48;0;0;
36453;PMS5003;22478;51.740;-1.314;2024-01-30T06:58:15;0;0;
36453;PMS5003;22478;51.740;-1.314;2024-01-30T07:00:42;1;1;
36453;PMS5003;22478;51.740;-1.314;2024-01-30T07:03:09;0;0;
36453;PMS5003;22478;51.740;-1.314;2024-01-30T07:05:36;0;0;
36453;PMS5003;22478;51.740;-1.314;2024-01-30T07:08:03;0;0;
36453;PMS5003;22478;51.740;-1.314;2024-01-30T07:10:31;0;0;
36453;PMS5003;22478;51.740;-1.314;2024-01-30T07:13:00;0;0;
36453;PMS5003;22478;51.740;-1.314;2024-01-30T07:15:27;0;0;
36453;PMS5003;22478;51.740;-1.314;2024-01-30T07:17:54;0;0;
36453;PMS5003;22478;51.740;-1.314;2024-01-30T07:20:21;0;0;
36453;PMS5003;22478;51.740;-1.314;2024-01-30T07:22:49;0;0;
36453;PMS5003;22478;51.740;-1.314;2024-01-30T07:25:16;0;0;
36453;PMS5003;22478;51.740;-1.314;2024-01-30T07:27:44;1;0;
36453;PMS5003;22478;51.740;-1.314;2024-01-30T07:30:11;1;1;
36453;PMS5003;22478;51.740;-1.314;2024-01-30T07:32:39;0;0;
36453;PMS5003;22478;51.740;-1.314;2024-01-30T07:35:06;2;1;
36453;PMS5003;22478;51.740;-1.314;2024-01-30T07:37:34;0;0;
36453;PMS5003;22478;51.740;-1.314;2024-01-30T07:40:02;0;0;
36453;PMS5003;22478;51.740;-1.314;2024-01-30T07:42:30;0;0;
36453;PMS5003;22478;51.740;-1.314;2024-01-30T07:44:57;0;0;
36453;PMS5003;22478;51.740;-1.314;2024-01-30T07:47:25;0;0;
36453;PMS5003;22478;51.740;-1.314;2024-01-30T07:49:53;0;0;
36453;PMS5003;22478;51.740;-1.314;2024-01-30T07:52:20;0;0;
36453;PMS5003;22478;51.740;-1.314;2024-01-30T07:55:02;0;0;
36453;PMS5003;22478;51.740;-1.314;2024-01-30T07:57:30;2;0;
36453;PMS5003;22478;51.740;-1.314;2024-01-30T07:59:57;0;0;
36453;PMS5003;22478;51.740;-1.314;2024-01-30T08:02:24;0;0;
36453;PMS5003;22478;51.740;-1.314;2024-01-30T08:04:51;0;0;
36453;PMS5003;22478;51.740;-1.314;2024-01-30T08:07:18;0;0;
36453;PMS5003;22478;51.740;-1.314;2024-01-30T08:09:46;0;0;
36453;PMS5003;22478;51.740;-1.314;2024-01-30T08:12:13;0;0;
36453;PMS5003;22478;51.740;-1.314;2024-01-30T08:14:40;0;0;
36453;PMS5003;22478;51.740;-1.314;2024-01-30T08:17:08;0;0;
36453;PMS5003;22478;51.740;-1.314;2024-01-30T08:19:35;0;0;
36453;PMS5003;22478;51.740;-1.314;2024-01-30T08:22:02;0;0;
36453;PMS5003;22478;51.740;-1.314;2024-01-30T08:24:30;0;0;
36453;PMS5003;22478;51.740;-1.314;2024-01-30T08:26:57;0;0;
36453;PMS5003;22478;51.740;-1.314;2024-01-30T08:29:24;0;0;
36453;PMS5003;22478;51.740;-1.314;2024-01-30T08:31:51;0;0;
36453;PMS5003;22478;51.740;-1.314;2024-01-30T08:34:19;0;0;
36453;PMS5003;22478;51.740;-1.314;2024-01-30T08:36:46;0;0;
36453;PMS5003;22478;51.740;-1.314;2024-01-30T08:39:13;0;0;
36453;PMS5003;22478;51.740;-1.314;2024-01-30T08:41:40;0;0;
36453;PMS5003;22478;51.740;-1.314;2024-01-30T08:44:07;0;0;
36453;PMS5003;22478;51.740;-1.314;2024-01-30T08:46:34;1;1;
36453;PMS5003;22478;51.740;-1.314;2024-01-30T08:49:01;0;0;
36453;PMS5003;22478;51.740;-1.314;2024-01-30T08:51:28;0;0;
36453;PMS5003;22478;51.740;-1.314;2024-01-30T08:53:55;0;0;
36453;PMS5003;22478;51.740;-1.314;2024-01-30T08:56:23;0;0;
36453;PMS5003;22478;51.740;-1.314;2024-01-30T08:58:50;0;0;
36453;PMS5003;22478;51.740;-1.314;2024-01-30T09:01:17;0;0;
36453;PMS5003;22478;51.740;-1.314;2024-01-30T09:03:44;0;0;
36453;PMS5003;22478;51.740;-1.314;2024-01-30T09:06:11;0;0;
36453;PMS5003;22478;51.740;-1.314;2024-01-30T09:08:38;0;0;
36453;PMS5003;22478;51.740;-1.314;2024-01-30T09:11:08;0;0;
36453;PMS5003;22478;51.740;-1.314;2024-01-30T09:13:36;0;0;
36453;PMS5003;22478;51.740;-1.314;2024-01-30T09:16:03;1;0;
36453;PMS5003;22478;51.740;-1.314;2024-01-30T09:18:31;0;0;
36453;PMS5003;22478;51.740;-1.314;2024-01-30T09:20:59;0;0;
36453;PMS5003;22478;51.740;-1.314;2024-01-30T09:23:26;0;0;
36453;PMS5003;22478;51.740;-1.314;2024-01-30T09:25:54;0;0;
36453;PMS5003;22478;51.740;-1.314;2024-01-30T09:28:22;0;0;
36453;PMS5003;22478;51.740;-1.314;2024-01-30T09:30:49;0;0;
36453;PMS5003;22478;51.740;-1.314;2024-01-30T09:33:16;0;0;
36453;PMS5003;22478;51.740;-1.314;2024-01-30T09:35:43;0;0;
36453;PMS5003;22478;51.740;-1.314;2024-01-30T09:38:10;0;0;
36453;PMS5003;22478;51.740;-1.314;2024-01-30T09:40:37;0;0;
36453;PMS5003;22478;51.740;-1.314;2024-01-30T09:43:05;0;0;
36453;PMS5003;22478;51.740;-1.314;2024-01-30T09:45:32;0;0;
36453;PMS5003;22478;51.740;-1.314;2024-01-30T09:48:00;0;0;
36453;PMS5003;22478;51.740;-1.314;2024-01-30T09:50:27;0;0;
36453;PMS5003;22478;51.740;-1.314;2024-01-30T09:52:54;0;0;
36453;PMS5003;22478;51.740;-1.314;2024-01-30T09:55:24;0;0;
36453;PMS5003;22478;51.740;-1.314;2024-01-30T09:57:51;0;0;
36453;PMS5003;22478;51.740;-1.314;2024-01-30T10:00:19;0;0;
36453;PMS5003;22478;51.740;-1.314;2024-01-30T10:02:47;0;0;
36453;PMS5003;22478;51.740;-1.314;2024-01-30T10:05:15;0;0;
36453;PMS5003;22478;51.740;-1.314;2024-01-30T10:07:53;0;0;
36453;PMS5003;22478;51.740;-1.314;2024-01-30T10:10:22;1;0;
36453;PMS5003;22478;51.740;-1.314;2024-01-30T10:12:49;0;0;
36453;PMS5003;22478;51.740;-1.314;2024-01-30T10:15:17;0;0;
36453;PMS5003;22478;51.740;-1.314;2024-01-30T10:17:45;0;0;
36453;PMS5003;22478;51.740;-1.314;2024-01-30T10:20:12;1;0;
36453;PMS5003;22478;51.740;-1.314;2024-01-30T10:22:40;0;0;
36453;PMS5003;22478;51.740;-1.314;2024-01-30T10:25:09;0;0;
36453;PMS5003;22478;51.740;-1.314;2024-01-30T10:27:38;0;0;
36453;PMS5003;22478;51.740;-1.314;2024-01-30T10:30:07;0;0;
36453;PMS5003;22478;51.740;-1.314;2024-01-30T10:32:34;0;0;
36453;PMS5003;22478;51.740;-1.314;2024-01-30T10:35:01;0;0;
36453;PMS5003;22478;51.740;-1.314;2024-01-30T10:37:28;0;0;
36453;PMS5003;22478;51.740;-1.314;2024-01-30T10:39:57;1;0;
36453;PMS5003;22478;51.740;-1.314;2024-01-30T10:42:29;0;0;
36453;PMS5003;22478;51.740;-1.314;2024-01-30T10:45:00;1;1;
36453;PMS5003;22478;51.740;-1.314;2024-01-30T10:47:32;0;0;
36453;PMS5003;22478;51.740;-1.314;2024-01-30T10:50:02;0;0;
36453;PMS5003;22478;51.740;-1.314;2024-01-30T10:52:30;0;0;
36453;PMS5003;22478;51.740;-1.314;2024-01-30T10:55:00;0;0;
36453;PMS5003;22478;51.740;-1.314;2024-01-30T10:57:28;0;0;
36453;PMS5003;22478;51.740;-1.314;2024-01-30T10:59:56;0;0;
36453;PMS5003;22478;51.740;-1.314;2024-01-30T11:02:25;0;0;
36453;PMS5003;22478;51.740;-1.314;2024-01-30T11:04:57;1;0;
36453;PMS5003;22478;51.740;-1.314;2024-01-30T11:07:25;1;1;
36453;PMS5003;22478;51.740;-1.314;2024-01-30T11:10:03;0;0;
36453;PMS5003;22478;51.740;-1.314;2024-01-30T11:12:32;0;0;
36453;PMS5003;22478;51.740;-1.314;2024-01-30T11:15:03;0;0;
36453;PMS5003;22478;51.740;-1.314;2024-01-30T11:17:41;0;0;
36453;PMS5003;22478;51.740;-1.314;2024-01-30T11:20:11;0;0;
36453;PMS5003;22478;51.740;-1.314;2024-01-30T11:22:40;0;0;
36453;PMS5003;22478;51.740;-1.314;2024-01-30T11:25:10;2;1;
36453;PMS5003;22478;51.740;-1.314;2024-01-30T11:27:38;0;0;
36453;PMS5003;22478;51.740;-1.314;2024-01-30T11:30:06;0;0;
36453;PMS5003;22478;51.740;-1.314;2024-01-30T11:32:34;0;0;
36453;PMS5003;22478;51.740;-1.314;2024-01-30T11:35:03;0;0;
36453;PMS5003;22478;51.740;-1.314;2024-01-30T11:37:30;0;0;
36453;PMS5003;22478;51.740;-1.314;2024-01-30T11:39:58;0;0;
36453;PMS5003;22478;51.740;-1.314;2024-01-30T11:42:25;0;0;
36453;PMS5003;22478;51.740;-1.314;2024-01-30T11:44:53;0;0;
36453;PMS5003;22478;51.740;-1.314;2024-01-30T11:47:20;0;0;
36453;PMS5003;22478;51.740;-1.314;2024-01-30T11:49:49;0;0;
36453;PMS5003;22478;51.740;-1.314;2024-01-30T11:52:17;0;0;
36453;PMS5003;22478;51.740;-1.314;2024-01-30T11:54:44;0;0;
36453;PMS5003;22478;51.740;-1.314;2024-01-30T11:57:11;0;0;
36453;PMS5003;22478;51.740;-1.314;2024-01-30T11:59:38;0;0;
36453;PMS5003;22478;51.740;-1.314;2024-01-30T12:02:05;0;0;
36453;PMS5003;22478;51.740;-1.314;2024-01-30T12:04:32;0;0;
36453;PMS5003;22478;51.740;-1.314;2024-01-30T12:07:00;0;0;
36453;PMS5003;22478;51.740;-1.314;2024-01-30T12:09:27;0;0;
36453;PMS5003;22478;51.740;-1.314;2024-01-30T12:11:54;0;0;
36453;PMS5003;22478;51.740;-1.314;2024-01-30T12:14:21;1;0;
36453;PMS5003;22478;51.740;-1.314;2024-01-30T12:16:49;0;0;
36453;PMS5003;22478;51.740;-1.314;2024-01-30T12:19:24;0;0;
36453;PMS5003;22478;51.740;-1.314;2024-01-30T12:21:55;0;0;
36453;PMS5003;22478;51.740;-1.314;2024-01-30T12:24:23;0;0;
36453;PMS5003;22478;51.740;-1.314;2024-01-30T12:26:50;0;0;
36453;PMS5003;22478;51.740;-1.314;2024-01-30T12:29:19;0;0;
36453;PMS5003;22478;51.740;-1.314;2024-01-30T12:31:46;0;0;
36453;PMS5003;22478;51.740;-1.314;2024-01-30T12:34:13;0;0;
36453;PMS5003;22478;51.740;-1.314;2024-01-30T12:36:41;0;0;
36453;PMS5003;22478;51.740;-1.314;2024-01-30T12:39:10;0;0;
36453;PMS5003;22478;51.740;-1.314;2024-01-30T12:41:37;0;0;
36453;PMS5003;22478;51.740;-1.314;2024-01-30T12:44:05;0;0;
36453;PMS5003;22478;51.740;-1.314;2024-01-30T12:46:33;0;0;
36453;PMS5003;22478;51.740;-1.314;2024-01-30T12:49:00;0;0;
36453;PMS5003;22478;51.740;-1.314;2024-01-30T12:51:28;0;0;
36453;PMS5003;22478;51.740;-1.314;2024-01-30T12:53:55;0;0;
36453;PMS5003;22478;51.740;-1.314;2024-01-30T12:56:22;3;0;
36453;PMS5003;22478;51.740;-1.314;2024-01-30T12:58:49;0;0;
36453;PMS5003;22478;51.740;-1.314;2024-01-30T13:01:16;0;0;
36453;PMS5003;22478;51.740;-1.314;2024-01-30T13:03:43;1;0;
36453;PMS5003;22478;51.740;-1.314;2024-01-30T13:06:10;0;0;
36453;PMS5003;22478;51.740;-1.314;2024-01-30T13:08:37;0;0;
36453;PMS5003;22478;51.740;-1.314;2024-01-30T13:11:04;0;0;
36453;PMS5003;22478;51.740;-1.314;2024-01-30T13:13:31;0;0;
36453;PMS5003;22478;51.740;-1.314;2024-01-30T13:15:59;0;0;
36453;PMS5003;22478;51.740;-1.314;2024-01-30T13:18:27;0;0;
36453;PMS5003;22478;51.740;-1.314;2024-01-30T13:20:55;0;0;
36453;PMS5003;22478;51.740;-1.314;2024-01-30T13:23:22;1;1;
36453;PMS5003;22478;51.740;-1.314;2024-01-30T13:25:49;0;0;
36453;PMS5003;22478;51.740;-1.314;2024-01-30T13:28:16;0;0;
36453;PMS5003;22478;51.740;-1.314;2024-01-30T13:30:43;0;0;
36453;PMS5003;22478;51.740;-1.314;2024-01-30T13:33:10;0;0;
36453;PMS5003;22478;51.740;-1.314;2024-01-30T13:35:37;0;0;
36453;PMS5003;22478;51.740;-1.314;2024-01-30T13:38:04;0;0;
36453;PMS5003;22478;51.740;-1.314;2024-01-30T13:40:31;0;0;
36453;PMS5003;22478;51.740;-1.314;2024-01-30T13:42:59;1;1;
36453;PMS5003;22478;51.740;-1.314;2024-01-30T13:45:27;1;1;
36453;PMS5003;22478;51.740;-1.314;2024-01-30T13:47:54;1;0;
36453;PMS5003;22478;51.740;-1.314;2024-01-30T13:50:21;2;1;
36453;PMS5003;22478;51.740;-1.314;2024-01-30T13:52:49;0;0;
36453;PMS5003;22478;51.740;-1.314;2024-01-30T13:55:16;0;0;
36453;PMS5003;22478;51.740;-1.314;2024-01-30T13:57:43;0;0;
36453;PMS5003;22478;51.740;-1.314;2024-01-30T14:00:10;0;0;
36453;PMS5003;22478;51.740;-1.314;2024-01-30T14:02:38;2;1;
36453;PMS5003;22478;51.740;-1.314;2024-01-30T14:05:05;0;0;
36453;PMS5003;22478;51.740;-1.314;2024-01-30T14:07:32;0;0;
36453;PMS5003;22478;51.740;-1.314;2024-01-30T14:09:59;2;1;
36453;PMS5003;22478;51.740;-1.314;2024-01-30T14:12:27;0;0;
36453;PMS5003;22478;51.740;-1.314;2024-01-30T14:14:54;0;0;
36453;PMS5003;22478;51.740;-1.314;2024-01-30T14:17:21;1;1;
36453;PMS5003;22478;51.740;-1.314;2024-01-30T14:19:48;1;1;
36453;PMS5003;22478;51.740;-1.314;2024-01-30T14:22:16;1;1;
36453;PMS5003;22478;51.740;-1.314;2024-01-30T14:24:43;2;2;
36453;PMS5003;22478;51.740;-1.314;2024-01-30T14:27:10;2;1;
36453;PMS5003;22478;51.740;-1.314;2024-01-30T14:29:38;1;1;
36453;PMS5003;22478;51.740;-1.314;2024-01-30T14:32:06;1;1;
36453;PMS5003;22478;51.740;-1.314;2024-01-30T14:34:34;0;0;
36453;PMS5003;22478;51.740;-1.314;2024-01-30T14:37:01;0;0;
36453;PMS5003;22478;51.740;-1.314;2024-01-30T14:39:28;0;0;
36453;PMS5003;22478;51.740;-1.314;2024-01-30T14:41:55;1;1;
36453;PMS5003;22478;51.740;-1.314;2024-01-30T14:44:22;1;1;
36453;PMS5003;22478;51.740;-1.314;2024-01-30T14:46:50;2;0;
36453;PMS5003;22478;51.740;-1.314;2024-01-30T14:49:18;1;1;
36453;PMS5003;22478;51.740;-1.314;2024-01-30T14:51:45;2;2;
36453;PMS5003;22478;51.740;-1.314;2024-01-30T14:54:12;1;1;
36453;PMS5003;22478;51.740;-1.314;2024-01-30T14:56:39;1;1;
36453;PMS5003;22478;51.740;-1.314;2024-01-30T14:59:06;2;1;
36453;PMS5003;22478;51.740;-1.314;2024-01-30T15:01:33;1;1;
36453;PMS5003;22478;51.740;-1.314;2024-01-30T15:04:00;2;2;
36453;PMS5003;22478;51.740;-1.314;2024-01-30T15:06:27;2;2;
36453;PMS5003;22478;51.740;-1.314;2024-01-30T15:08:54;2;2;
36453;PMS5003;22478;51.740;-1.314;2024-01-30T15:11:22;1;1;
36453;PMS5003;22478;51.740;-1.314;2024-01-30T15:13:49;2;2;
36453;PMS5003;22478;51.740;-1.314;2024-01-30T15:16:16;2;2;
36453;PMS5003;22478;51.740;-1.314;2024-01-30T15:18:43;2;2;
36453;PMS5003;22478;51.740;-1.314;2024-01-30T15:21:10;2;1;
36453;PMS5003;22478;51.740;-1.314;2024-01-30T15:23:37;1;1;
36453;PMS5003;22478;51.740;-1.314;2024-01-30T15:26:04;2;2;
36453;PMS5003;22478;51.740;-1.314;2024-01-30T15:28:35;2;2;
36453;PMS5003;22478;51.740;-1.314;2024-01-30T15:31:03;1;1;
36453;PMS5003;22478;51.740;-1.314;2024-01-30T15:33:31;2;2;
36453;PMS5003;22478;51.740;-1.314;2024-01-30T15:35:59;3;3;
36453;PMS5003;22478;51.740;-1.314;2024-01-30T15:38:28;1;1;
36453;PMS5003;22478;51.740;-1.314;2024-01-30T15:40:56;4;3;
36453;PMS5003;22478;51.740;-1.314;2024-01-30T15:43:24;1;1;
36453;PMS5003;22478;51.740;-1.314;2024-01-30T15:45:51;2;1;
36453;PMS5003;22478;51.740;-1.314;2024-01-30T15:48:18;3;2;
36453;PMS5003;22478;51.740;-1.314;2024-01-30T15:50:45;5;2;
36453;PMS5003;22478;51.740;-1.314;2024-01-30T15:53:12;2;1;
36453;PMS5003;22478;51.740;-1.314;2024-01-30T15:55:39;3;3;
36453;PMS5003;22478;51.740;-1.314;2024-01-30T15:58:06;2;2;
36453;PMS5003;22478;51.740;-1.314;2024-01-30T16:00:34;2;2;
36453;PMS5003;22478;51.740;-1.314;2024-01-30T16:03:01;2;2;
36453;PMS5003;22478;51.740;-1.314;2024-01-30T16:05:28;2;2;
36453;PMS5003;22478;51.740;-1.314;2024-01-30T16:07:55;2;1;
36453;PMS5003;22478;51.740;-1.314;2024-01-30T16:10:22;1;1;
36453;PMS5003;22478;51.740;-1.314;2024-01-30T16:12:49;1;1;
36453;PMS5003;22478;51.740;-1.314;2024-01-30T16:15:16;3;1;
36453;PMS5003;22478;51.740;-1.314;2024-01-30T16:17:44;1;1;
36453;PMS5003;22478;51.740;-1.314;2024-01-30T16:20:11;0;0;
36453;PMS5003;22478;51.740;-1.314;2024-01-30T16:22:39;1;1;
36453;PMS5003;22478;51.740;-1.314;2024-01-30T16:25:06;0;0;
36453;PMS5003;22478;51.740;-1.314;2024-01-30T16:27:34;0;0;
36453;PMS5003;22478;51.740;-1.314;2024-01-30T16:30:01;1;1;
36453;PMS5003;22478;51.740;-1.314;2024-01-30T16:32:29;2;0;
36453;PMS5003;22478;51.740;-1.314;2024-01-30T16:34:56;0;0;